sensor_id;sensor_type;location;lat;lon;timestamp;pressure;altitude;pressure_sealevel;temperature;humidity
44531;BME280;30240;47.418;0.700;2024-01-06T12:00:29;100256.31103515625;;;6.88;85.38
44531;BME280;30240;47.418;0.700;2024-01-06T12:02:56;100203.38134765625;;;6.72;85.51
44531;BME280;30240;47.418;0.700;2024-01-06T12:05:19;100276.08642578125;;;6.87;85.78
44531;BME280;30240;47.418;0.700;2024-01-06T12:07:53;100275.15869140625;;;6.92;85.7
44531;BME280;30240;47.418;0.700;2024-01-06T12:10:09;100272.88818359375;;;6.78;85.56
44531;BME280;30240;47.418;0.700;2024-01-06T12:12:33;100272.88818359375;;;6.78;85.56
44531;BME280;30240;47.418;0.700;2024-01-06T12:14:58;100262.939453125;;;6.74;85.46
44531;BME280;30240;47.418;0.700;2024-01-06T12:17:28;100261.0595703125;;;6.63;85.5
44531;BME280;30240;47.418;0.700;2024-01-06T12:19:48;100256.5185546875;;;6.72;85.79
44531;BME280;30240;47.418;0.700;2024-01-06T12:22:15;100257.65380859375;;;6.75;85.77
44531;BME280;30240;47.418;0.700;2024-01-06T12:24:38;100257.65380859375;;;6.75;85.77
44531;BME280;30240;47.418;0.700;2024-01-06T12:27:06;100254.43725585938;;;6.63;85.48
44531;BME280;30240;47.418;0.700;2024-01-06T12:29:29;100253.18603515625;;;6.65;85.51
44531;BME280;30240;47.418;0.700;2024-01-06T12:31:54;100257.763671875;;;6.77;85.5
44531;BME280;30240;47.418;0.700;2024-01-06T12:34:18;100253.173828125;;;6.95;85.27
44531;BME280;30240;47.418;0.700;2024-01-06T12:36:44;100253.173828125;;;6.95;85.27
44531;BME280;30240;47.418;0.700;2024-01-06T12:39:11;100248.34594726562;;;6.72;84.99
44531;BME280;30240;47.418;0.700;2024-01-06T12:41:36;100250.07934570312;;;7.23;84.86
44531;BME280;30240;47.418;0.700;2024-01-06T12:43:59;100249.13940429688;;;7.24;84.22
44531;BME280;30240;47.418;0.700;2024-01-06T12:46:24;100241.74194335938;;;7.3;84.07
44531;BME280;30240;47.418;0.700;2024-01-06T12:48:49;100241.74194335938;;;7.3;84.07
44531;BME280;30240;47.418;0.700;2024-01-06T12:51:14;100237.53662109375;;;7.26;83.72
44531;BME280;30240;47.418;0.700;2024-01-06T12:53:39;100235.55297851562;;;7.35;83.68
44531;BME280;30240;47.418;0.700;2024-01-06T12:56:04;100234.2041015625;;;7.59;82.91
44531;BME280;30240;47.418;0.700;2024-01-06T12:58:29;100234.14306640625;;;7.54;83.1
44531;BME280;30240;47.418;0.700;2024-01-06T13:00:54;100234.14306640625;;;7.54;83.1
44531;BME280;30240;47.418;0.700;2024-01-06T13:03:19;100228.0029296875;;;7.4;82.74
44531;BME280;30240;47.418;0.700;2024-01-06T13:05:44;100226.89819335938;;;7.35;82.56
44531;BME280;30240;47.418;0.700;2024-01-06T13:08:09;100228.06396484375;;;7.31;82.5
44531;BME280;30240;47.418;0.700;2024-01-06T13:10:34;100226.06201171875;;;7.35;82.37
44531;BME280;30240;47.418;0.700;2024-01-06T13:12:59;100226.06201171875;;;7.35;82.37
44531;BME280;30240;47.418;0.700;2024-01-06T13:15:24;100233.11157226562;;;7.37;82.45
44531;BME280;30240;47.418;0.700;2024-01-06T13:17:49;100230.0048828125;;;7.24;82.18
44531;BME280;30240;47.418;0.700;2024-01-06T13:20:14;100235.90698242188;;;7.31;82.09
44531;BME280;30240;47.418;0.700;2024-01-06T13:22:39;100247.24731445312;;;7.34;82.06
44531;BME280;30240;47.418;0.700;2024-01-06T13:25:04;100247.24731445312;;;7.34;82.06
44531;BME280;30240;47.418;0.700;2024-01-06T13:27:29;100251.611328125;;;7.44;81.53
44531;BME280;30240;47.418;0.700;2024-01-06T13:29:54;100259.033203125;;;7.47;81.32
44531;BME280;30240;47.418;0.700;2024-01-06T13:32:19;100256.77490234375;;;7.43;80.93
44531;BME280;30240;47.418;0.700;2024-01-06T13:34:51;100260.01586914062;;;7.38;81.01
44531;BME280;30240;47.418;0.700;2024-01-06T13:37:09;100262.51831054688;;;7.34;80.47
44531;BME280;30240;47.418;0.700;2024-01-06T13:39:34;100262.51831054688;;;7.34;80.47
44531;BME280;30240;47.418;0.700;2024-01-06T13:41:59;100262.26806640625;;;7.45;80.42
44531;BME280;30240;47.418;0.700;2024-01-06T13:44:24;100263.73291015625;;;7.43;80.58
44531;BME280;30240;47.418;0.700;2024-01-06T13:46:49;100258.40454101562;;;7.5;80.63
44531;BME280;30240;47.418;0.700;2024-01-06T13:49:14;100264.501953125;;;7.79;80.42
44531;BME280;30240;47.418;0.700;2024-01-06T13:51:39;100264.501953125;;;7.79;80.42
44531;BME280;30240;47.418;0.700;2024-01-06T13:54:04;100265.64331054688;;;7.75;80.28
44531;BME280;30240;47.418;0.700;2024-01-06T13:56:29;100263.720703125;;;7.75;80.29
44531;BME280;30240;47.418;0.700;2024-01-06T13:58:54;100261.72485351562;;;7.52;80.53
44531;BME280;30240;47.418;0.700;2024-01-06T14:01:19;100258.62426757812;;;7.55;80.85
44531;BME280;30240;47.418;0.700;2024-01-06T14:03:44;100258.62426757812;;;7.55;80.85
44531;BME280;30240;47.418;0.700;2024-01-06T14:06:09;100261.13891601562;;;7.59;80.99
44531;BME280;30240;47.418;0.700;2024-01-06T14:08:34;100262.98217773438;;;7.45;81.0
44531;BME280;30240;47.418;0.700;2024-01-06T14:10:59;100260.205078125;;;7.58;80.9
44531;BME280;30240;47.418;0.700;2024-01-06T14:13:24;100264.61181640625;;;7.78;80.74
44531;BME280;30240;47.418;0.700;2024-01-06T14:15:49;100264.61181640625;;;7.78;80.74
44531;BME280;30240;47.418;0.700;2024-01-06T14:18:14;100264.20288085938;;;8.15;80.34
44531;BME280;30240;47.418;0.700;2024-01-06T14:20:39;100238.78784179688;;;8.25;79.17
44531;BME280;30240;47.418;0.700;2024-01-06T14:23:04;100235.35766601562;;;7.87;79.63
44531;BME280;30240;47.418;0.700;2024-01-06T14:25:29;100224.7802734375;;;8.48;78.83
44531;BME280;30240;47.418;0.700;2024-01-06T14:27:54;100224.7802734375;;;8.48;78.83
44531;BME280;30240;47.418;0.700;2024-01-06T14:30:19;100203.37524414062;;;8.6;78.22
44531;BME280;30240;47.418;0.700;2024-01-06T14:32:44;100184.18579101562;;;8.92;78.07
44531;BME280;30240;47.418;0.700;2024-01-06T14:35:09;100149.10888671875;;;8.76;77.92
44531;BME280;30240;47.418;0.700;2024-01-06T14:37:34;100164.51416015625;;;9.33;78.31
44531;BME280;30240;47.418;0.700;2024-01-06T14:39:59;100164.51416015625;;;9.33;78.31
44531;BME280;30240;47.418;0.700;2024-01-06T14:42:24;100184.57641601562;;;8.45;77.95
44531;BME280;30240;47.418;0.700;2024-01-06T14:44:49;100192.81005859375;;;8.44;77.51
44531;BME280;30240;47.418;0.700;2024-01-06T14:47:14;100210.1318359375;;;8.15;78.86
44531;BME280;30240;47.418;0.700;2024-01-06T14:49:39;100233.00170898438;;;8.15;78.96
44531;BME280;30240;47.418;0.700;2024-01-06T14:52:04;100233.00170898438;;;8.15;78.96
44531;BME280;30240;47.418;0.700;2024-01-06T14:54:29;100260.29663085938;;;7.78;79.76
44531;BME280;30240;47.418;0.700;2024-01-06T14:56:54;100273.86474609375;;;7.78;80.11
44531;BME280;30240;47.418;0.700;2024-01-06T14:59:19;100283.48388671875;;;7.62;80.56
44531;BME280;30240;47.418;0.700;2024-01-06T15:01:44;100294.20166015625;;;7.58;80.39
44531;BME280;30240;47.418;0.700;2024-01-06T15:04:08;100294.20166015625;;;7.58;80.39
44531;BME280;30240;47.418;0.700;2024-01-06T15:06:34;100297.39990234375;;;7.55;80.35
44531;BME280;30240;47.418;0.700;2024-01-06T15:08:59;100302.23388671875;;;7.45;79.67
44531;BME280;30240;47.418;0.700;2024-01-06T15:11:23;100305.21850585938;;;7.61;79.85
44531;BME280;30240;47.418;0.700;2024-01-06T15:13:49;100308.39233398438;;;7.48;79.89
44531;BME280;30240;47.418;0.700;2024-01-06T15:16:14;100320.47119140625;;;7.44;79.8
44531;BME280;30240;47.418;0.700;2024-01-06T15:18:39;100320.47119140625;;;7.44;79.8
44531;BME280;30240;47.418;0.700;2024-01-06T15:21:04;100328.62548828125;;;7.41;79.9
44531;BME280;30240;47.418;0.700;2024-01-06T15:23:29;100337.39013671875;;;7.51;79.76
44531;BME280;30240;47.418;0.700;2024-01-06T15:25:54;100342.0166015625;;;7.55;79.79
44531;BME280;30240;47.418;0.700;2024-01-06T15:28:19;100336.2548828125;;;7.78;79.35
44531;BME280;30240;47.418;0.700;2024-01-06T15:30:44;100336.2548828125;;;7.78;79.35
44531;BME280;30240;47.418;0.700;2024-01-06T15:33:09;100350.732421875;;;7.62;79.98
44531;BME280;30240;47.418;0.700;2024-01-06T15:35:33;100330.46875;;;8.27;79.29
44531;BME280;30240;47.418;0.700;2024-01-06T15:37:59;100338.70239257812;;;7.87;79.3
44531;BME280;30240;47.418;0.700;2024-01-06T15:40:24;100332.4462890625;;;7.4;80.28
44531;BME280;30240;47.418;0.700;2024-01-06T15:42:48;100332.4462890625;;;7.4;80.28
44531;BME280;30240;47.418;0.700;2024-01-06T15:45:14;100341.46118164062;;;7.38;80.95
44531;BME280;30240;47.418;0.700;2024-01-06T15:47:38;100357.48291015625;;;7.0;82.39
44531;BME280;30240;47.418;0.700;2024-01-06T15:50:04;100340.234375;;;6.28;85.18
44531;BME280;30240;47.418;0.700;2024-01-06T15:52:29;100342.0654296875;;;6.02;85.85
44531;BME280;30240;47.418;0.700;2024-01-06T15:54:54;100342.0654296875;;;6.02;85.85
44531;BME280;30240;47.418;0.700;2024-01-06T15:57:19;100351.4404296875;;;6.04;86.36
44531;BME280;30240;47.418;0.700;2024-01-06T15:59:44;100363.43994140625;;;5.94;86.68
44531;BME280;30240;47.418;0.700;2024-01-06T16:02:09;100373.23608398438;;;5.98;86.95
44531;BME280;30240;47.418;0.700;2024-01-06T16:04:33;100382.34252929688;;;5.99;87.34
44531;BME280;30240;47.418;0.700;2024-01-06T16:06:58;100382.34252929688;;;5.99;87.34
44531;BME280;30240;47.418;0.700;2024-01-06T16:09:24;100390.85083007812;;;6.02;87.48
44531;BME280;30240;47.418;0.700;2024-01-06T16:11:48;100405.56030273438;;;6.01;87.47
44531;BME280;30240;47.418;0.700;2024-01-06T16:14:14;100409.3994140625;;;5.99;87.59
44531;BME280;30240;47.418;0.700;2024-01-06T16:16:38;100418.29833984375;;;5.97;87.68
44531;BME280;30240;47.418;0.700;2024-01-06T16:19:03;100418.29833984375;;;5.97;87.68
44531;BME280;30240;47.418;0.700;2024-01-06T16:21:29;100413.4033203125;;;6.02;87.79
44531;BME280;30240;47.418;0.700;2024-01-06T16:23:54;100411.38916015625;;;6.06;87.8
44531;BME280;30240;47.418;0.700;2024-01-06T16:26:19;100408.29467773438;;;6.02;87.77
44531;BME280;30240;47.418;0.700;2024-01-06T16:28:44;100410.7177734375;;;6.05;87.93
44531;BME280;30240;47.418;0.700;2024-01-06T16:31:09;100410.7177734375;;;6.05;87.93
44531;BME280;30240;47.418;0.700;2024-01-06T16:33:34;100410.02197265625;;;5.98;88.23
44531;BME280;30240;47.418;0.700;2024-01-06T16:35:58;100400.10986328125;;;5.95;88.71
44531;BME280;30240;47.418;0.700;2024-01-06T16:38:23;100390.2587890625;;;5.84;89.05
44531;BME280;30240;47.418;0.700;2024-01-06T16:40:48;100395.22094726562;;;5.95;89.45
44531;BME280;30240;47.418;0.700;2024-01-06T16:43:14;100395.67260742188;;;5.88;89.41
44531;BME280;30240;47.418;0.700;2024-01-06T16:45:38;100395.67260742188;;;5.88;89.41
44531;BME280;30240;47.418;0.700;2024-01-06T16:48:05;100403.60717773438;;;5.78;89.47
44531;BME280;30240;47.418;0.700;2024-01-06T16:50:28;100409.56420898438;;;5.73;89.52
44531;BME280;30240;47.418;0.700;2024-01-06T16:52:53;100415.8447265625;;;5.71;89.54
44531;BME280;30240;47.418;0.700;2024-01-06T16:55:18;100417.529296875;;;5.8;89.72
44531;BME280;30240;47.418;0.700;2024-01-06T16:57:43;100417.529296875;;;5.8;89.72
44531;BME280;30240;47.418;0.700;2024-01-06T17:00:10;100417.3095703125;;;5.74;89.83
44531;BME280;30240;47.418;0.700;2024-01-06T17:02:33;100416.03393554688;;;5.74;89.88
44531;BME280;30240;47.418;0.700;2024-01-06T17:04:59;100420.01342773438;;;5.7;89.88
44531;BME280;30240;47.418;0.700;2024-01-06T17:07:24;100417.138671875;;;5.61;89.87
44531;BME280;30240;47.418;0.700;2024-01-06T17:09:48;100417.138671875;;;5.61;89.87
44531;BME280;30240;47.418;0.700;2024-01-06T17:12:14;100422.90649414062;;;5.6;89.99
44531;BME280;30240;47.418;0.700;2024-01-06T17:14:39;100421.142578125;;;5.5;89.99
44531;BME280;30240;47.418;0.700;2024-01-06T17:17:04;100422.7783203125;;;5.49;90.1
44531;BME280;30240;47.418;0.700;2024-01-06T17:19:28;100424.951171875;;;5.52;90.17
44531;BME280;30240;47.418;0.700;2024-01-06T17:21:54;100424.951171875;;;5.52;90.17
44531;BME280;30240;47.418;0.700;2024-01-06T17:24:18;100424.609375;;;5.53;90.19
44531;BME280;30240;47.418;0.700;2024-01-06T17:26:44;100432.00073242188;;;5.54;90.2
44531;BME280;30240;47.418;0.700;2024-01-06T17:29:08;100438.09204101562;;;5.56;90.2
44531;BME280;30240;47.418;0.700;2024-01-06T17:31:34;100436.4501953125;;;5.53;90.12
44531;BME280;30240;47.418;0.700;2024-01-06T17:33:58;100436.4501953125;;;5.53;90.12
44531;BME280;30240;47.418;0.700;2024-01-06T17:36:23;100441.015625;;;5.54;90.02
44531;BME280;30240;47.418;0.700;2024-01-06T17:38:49;100438.73291015625;;;5.59;89.69
44531;BME280;30240;47.418;0.700;2024-01-06T17:41:13;100442.12646484375;;;5.54;89.37
44531;BME280;30240;47.418;0.700;2024-01-06T17:43:38;100446.84448242188;;;5.52;89.14
44531;BME280;30240;47.418;0.700;2024-01-06T17:46:03;100446.84448242188;;;5.52;89.14
44531;BME280;30240;47.418;0.700;2024-01-06T17:48:29;100452.1240234375;;;5.56;88.88
44531;BME280;30240;47.418;0.700;2024-01-06T17:50:54;100452.92358398438;;;5.59;88.69
44531;BME280;30240;47.418;0.700;2024-01-06T17:53:18;100453.60717773438;;;5.57;88.45
44531;BME280;30240;47.418;0.700;2024-01-06T17:55:44;100454.5654296875;;;5.57;88.25
44531;BME280;30240;47.418;0.700;2024-01-06T17:58:08;100454.5654296875;;;5.57;88.25
44531;BME280;30240;47.418;0.700;2024-01-06T18:00:34;100449.07836914062;;;5.56;88.12
44531;BME280;30240;47.418;0.700;2024-01-06T18:02:59;100460.13793945312;;;5.54;87.79
44531;BME280;30240;47.418;0.700;2024-01-06T18:05:24;100454.21752929688;;;5.59;87.53
44531;BME280;30240;47.418;0.700;2024-01-06T18:07:49;100467.90771484375;;;5.59;86.98
44531;BME280;30240;47.418;0.700;2024-01-06T18:10:14;100467.90771484375;;;5.59;86.98
44531;BME280;30240;47.418;0.700;2024-01-06T18:12:39;100464.72778320312;;;5.6;86.43
44531;BME280;30240;47.418;0.700;2024-01-06T18:15:04;100470.88012695312;;;5.59;86.42
44531;BME280;30240;47.418;0.700;2024-01-06T18:17:29;100468.98193359375;;;5.49;86.21
44531;BME280;30240;47.418;0.700;2024-01-06T18:19:53;100468.4814453125;;;5.5;85.85
44531;BME280;30240;47.418;0.700;2024-01-06T18:22:19;100475.88500976562;;;5.52;85.55
44531;BME280;30240;47.418;0.700;2024-01-06T18:24:44;100475.88500976562;;;5.52;85.55
44531;BME280;30240;47.418;0.700;2024-01-06T18:27:09;100478.80249023438;;;5.52;85.67
44531;BME280;30240;47.418;0.700;2024-01-06T18:29:34;100479.31518554688;;;5.52;85.43
44531;BME280;30240;47.418;0.700;2024-01-06T18:31:59;100489.78271484375;;;5.5;85.39
44531;BME280;30240;47.418;0.700;2024-01-06T18:34:23;100481.13403320312;;;5.54;85.04
44531;BME280;30240;47.418;0.700;2024-01-06T18:36:48;100481.13403320312;;;5.54;85.04
44531;BME280;30240;47.418;0.700;2024-01-06T18:39:14;100486.38916015625;;;5.52;84.62
44531;BME280;30240;47.418;0.700;2024-01-06T18:41:38;100488.88549804688;;;5.53;84.76
44531;BME280;30240;47.418;0.700;2024-01-06T18:44:03;100489.501953125;;;5.49;84.24
44531;BME280;30240;47.418;0.700;2024-01-06T18:46:28;100492.37670898438;;;5.56;84.03
44531;BME280;30240;47.418;0.700;2024-01-06T18:48:54;100492.37670898438;;;5.56;84.03
44531;BME280;30240;47.418;0.700;2024-01-06T18:51:20;100493.85986328125;;;5.61;83.92
44531;BME280;30240;47.418;0.700;2024-01-06T18:53:45;100494.37255859375;;;5.6;83.39
44531;BME280;30240;47.418;0.700;2024-01-06T18:56:08;100495.08056640625;;;5.63;83.02
44531;BME280;30240;47.418;0.700;2024-01-06T18:58:33;100500.25024414062;;;5.67;82.91
44531;BME280;30240;47.418;0.700;2024-01-06T19:00:58;100500.25024414062;;;5.67;82.91
44531;BME280;30240;47.418;0.700;2024-01-06T19:03:24;100501.62353515625;;;5.66;82.77
44531;BME280;30240;47.418;0.700;2024-01-06T19:05:48;100506.28662109375;;;5.69;83.0
44531;BME280;30240;47.418;0.700;2024-01-06T19:08:13;100504.20532226562;;;5.7;83.01
44531;BME280;30240;47.418;0.700;2024-01-06T19:10:38;100506.57958984375;;;5.71;82.75
44531;BME280;30240;47.418;0.700;2024-01-06T19:13:03;100506.57958984375;;;5.71;82.75
44531;BME280;30240;47.418;0.700;2024-01-06T19:15:29;100511.19384765625;;;5.74;82.8
44531;BME280;30240;47.418;0.700;2024-01-06T19:17:54;100510.68725585938;;;5.73;82.52
44531;BME280;30240;47.418;0.700;2024-01-06T19:20:19;100514.00756835938;;;5.71;82.38
44531;BME280;30240;47.418;0.700;2024-01-06T19:22:43;100518.4814453125;;;5.77;82.32
44531;BME280;30240;47.418;0.700;2024-01-06T19:25:09;100518.4814453125;;;5.77;82.32
44531;BME280;30240;47.418;0.700;2024-01-06T19:27:34;100518.60961914062;;;5.77;82.16
44531;BME280;30240;47.418;0.700;2024-01-06T19:29:59;100524.951171875;;;5.8;82.36
44531;BME280;30240;47.418;0.700;2024-01-06T19:32:24;100530.2001953125;;;5.8;82.39
44531;BME280;30240;47.418;0.700;2024-01-06T19:34:49;100532.01293945312;;;5.78;82.56
44531;BME280;30240;47.418;0.700;2024-01-06T19:37:14;100532.01293945312;;;5.78;82.56
44531;BME280;30240;47.418;0.700;2024-01-06T19:39:39;100534.43603515625;;;5.83;82.64
44531;BME280;30240;47.418;0.700;2024-01-06T19:42:04;100538.25073242188;;;5.83;82.31
44531;BME280;30240;47.418;0.700;2024-01-06T19:44:30;100539.80712890625;;;5.8;82.4
44531;BME280;30240;47.418;0.700;2024-01-06T19:46:54;100548.71826171875;;;5.77;81.98
44531;BME280;30240;47.418;0.700;2024-01-06T19:49:19;100546.56982421875;;;5.78;81.33
44531;BME280;30240;47.418;0.700;2024-01-06T19:51:44;100546.56982421875;;;5.78;81.33
44531;BME280;30240;47.418;0.700;2024-01-06T19:54:09;100548.2666015625;;;5.78;80.96
44531;BME280;30240;47.418;0.700;2024-01-06T19:56:34;100545.31860351562;;;5.81;81.18
44531;BME280;30240;47.418;0.700;2024-01-06T19:58:59;100543.3837890625;;;5.78;81.21
44531;BME280;30240;47.418;0.700;2024-01-06T20:01:23;100540.4541015625;;;5.77;81.03
44531;BME280;30240;47.418;0.700;2024-01-06T20:03:48;100540.4541015625;;;5.77;81.03
44531;BME280;30240;47.418;0.700;2024-01-06T20:06:13;100541.71752929688;;;5.73;80.81
44531;BME280;30240;47.418;0.700;2024-01-06T20:08:39;100547.8271484375;;;5.69;81.06
44531;BME280;30240;47.418;0.700;2024-01-06T20:11:04;100545.654296875;;;5.66;80.9
44531;BME280;30240;47.418;0.700;2024-01-06T20:13:29;100557.2998046875;;;5.63;81.22
44531;BME280;30240;47.418;0.700;2024-01-06T20:15:54;100557.2998046875;;;5.63;81.22
44531;BME280;30240;47.418;0.700;2024-01-06T20:18:18;100549.42016601562;;;5.57;81.39
44531;BME280;30240;47.418;0.700;2024-01-06T20:20:44;100552.84423828125;;;5.56;81.45
44531;BME280;30240;47.418;0.700;2024-01-06T20:23:09;100552.93579101562;;;5.46;81.78
44531;BME280;30240;47.418;0.700;2024-01-06T20:25:33;100552.1728515625;;;5.38;81.82
44531;BME280;30240;47.418;0.700;2024-01-06T20:27:59;100552.1728515625;;;5.38;81.82
44531;BME280;30240;47.418;0.700;2024-01-06T20:30:24;100553.7841796875;;;5.35;81.91
44531;BME280;30240;47.418;0.700;2024-01-06T20:32:48;100556.21948242188;;;5.25;82.0
44531;BME280;30240;47.418;0.700;2024-01-06T20:35:14;100555.5908203125;;;5.24;82.24
44531;BME280;30240;47.418;0.700;2024-01-06T20:37:39;100550.36010742188;;;5.15;82.07
44531;BME280;30240;47.418;0.700;2024-01-06T20:40:04;100550.36010742188;;;5.15;82.07
44531;BME280;30240;47.418;0.700;2024-01-06T20:42:28;100549.951171875;;;5.12;82.28
44531;BME280;30240;47.418;0.700;2024-01-06T20:44:54;100553.62548828125;;;5.04;82.4
44531;BME280;30240;47.418;0.700;2024-01-06T20:47:19;100554.5654296875;;;5.03;82.59
44531;BME280;30240;47.418;0.700;2024-01-06T20:49:44;100557.56225585938;;;4.98;82.73
44531;BME280;30240;47.418;0.700;2024-01-06T20:52:09;100557.56225585938;;;4.98;82.73
44531;BME280;30240;47.418;0.700;2024-01-06T20:54:36;100558.84399414062;;;4.95;82.89
44531;BME280;30240;47.418;0.700;2024-01-06T20:56:58;100560.04638671875;;;4.93;82.92
44531;BME280;30240;47.418;0.700;2024-01-06T20:59:23;100560.01586914062;;;4.93;82.81
44531;BME280;30240;47.418;0.700;2024-01-06T21:01:49;100557.06176757812;;;4.93;82.75
44531;BME280;30240;47.418;0.700;2024-01-06T21:04:13;100557.06176757812;;;4.93;82.75
44531;BME280;30240;47.418;0.700;2024-01-06T21:06:38;100557.26318359375;;;4.87;82.71
44531;BME280;30240;47.418;0.700;2024-01-06T21:09:03;100560.90087890625;;;4.88;82.64
44531;BME280;30240;47.418;0.700;2024-01-06T21:11:29;100565.93627929688;;;4.93;82.53
44531;BME280;30240;47.418;0.700;2024-01-06T21:13:53;100563.22021484375;;;4.95;82.25
44531;BME280;30240;47.418;0.700;2024-01-06T21:16:18;100563.22021484375;;;4.95;82.25
44531;BME280;30240;47.418;0.700;2024-01-06T21:18:44;100560.91918945312;;;4.86;82.42
44531;BME280;30240;47.418;0.700;2024-01-06T21:21:12;100556.15844726562;;;4.77;82.66
44531;BME280;30240;47.418;0.700;2024-01-06T21:23:33;100554.9072265625;;;4.72;82.88
44531;BME280;30240;47.418;0.700;2024-01-06T21:25:58;100554.45556640625;;;4.7;82.99
44531;BME280;30240;47.418;0.700;2024-01-06T21:28:23;100559.619140625;;;4.68;83.12
44531;BME280;30240;47.418;0.700;2024-01-06T21:30:49;100559.619140625;;;4.68;83.12
44531;BME280;30240;47.418;0.700;2024-01-06T21:33:13;100563.25073242188;;;4.65;83.1
44531;BME280;30240;47.418;0.700;2024-01-06T21:35:39;100564.794921875;;;4.59;83.24
44531;BME280;30240;47.418;0.700;2024-01-06T21:38:03;100567.88940429688;;;4.52;83.43
44531;BME280;30240;47.418;0.700;2024-01-06T21:40:28;100564.42260742188;;;4.51;83.58
44531;BME280;30240;47.418;0.700;2024-01-06T21:42:54;100564.42260742188;;;4.51;83.58
44531;BME280;30240;47.418;0.700;2024-01-06T21:45:20;100572.705078125;;;4.44;83.69
44531;BME280;30240;47.418;0.700;2024-01-06T21:47:43;100566.37573242188;;;4.38;83.97
44531;BME280;30240;47.418;0.700;2024-01-06T21:50:10;100567.87719726562;;;4.33;84.03
44531;BME280;30240;47.418;0.700;2024-01-06T21:52:34;100566.51611328125;;;4.3;84.18
44531;BME280;30240;47.418;0.700;2024-01-06T21:54:59;100566.51611328125;;;4.3;84.18
44531;BME280;30240;47.418;0.700;2024-01-06T21:57:23;100568.06030273438;;;4.3;84.29
44531;BME280;30240;47.418;0.700;2024-01-06T21:59:48;100576.171875;;;4.25;84.34
44531;BME280;30240;47.418;0.700;2024-01-06T22:02:14;100572.73559570312;;;4.24;84.38
44531;BME280;30240;47.418;0.700;2024-01-06T22:04:39;100575.32958984375;;;4.27;84.44
44531;BME280;30240;47.418;0.700;2024-01-06T22:07:04;100575.32958984375;;;4.27;84.44
44531;BME280;30240;47.418;0.700;2024-01-06T22:09:29;100576.67236328125;;;4.24;84.62
44531;BME280;30240;47.418;0.700;2024-01-06T22:11:54;100581.39038085938;;;4.16;84.56
44531;BME280;30240;47.418;0.700;2024-01-06T22:14:18;100583.203125;;;4.18;84.6
44531;BME280;30240;47.418;0.700;2024-01-06T22:16:44;100586.66381835938;;;4.25;84.62
44531;BME280;30240;47.418;0.700;2024-01-06T22:19:09;100586.66381835938;;;4.25;84.62
44531;BME280;30240;47.418;0.700;2024-01-06T22:21:38;100590.60668945312;;;4.27;84.56
44531;BME280;30240;47.418;0.700;2024-01-06T22:23:59;100595.90454101562;;;4.21;84.6
44531;BME280;30240;47.418;0.700;2024-01-06T22:26:23;100596.93603515625;;;4.22;84.7
44531;BME280;30240;47.418;0.700;2024-01-06T22:28:48;100596.728515625;;;4.16;84.86
44531;BME280;30240;47.418;0.700;2024-01-06T22:31:13;100596.728515625;;;4.16;84.86
44531;BME280;30240;47.418;0.700;2024-01-06T22:33:38;100595.4345703125;;;4.16;84.98
44531;BME280;30240;47.418;0.700;2024-01-06T22:36:10;100608.7646484375;;;4.17;84.99
44531;BME280;30240;47.418;0.700;2024-01-06T22:38:28;100603.53393554688;;;4.21;85.11
44531;BME280;30240;47.418;0.700;2024-01-06T22:40:54;100607.28149414062;;;4.3;84.87
44531;BME280;30240;47.418;0.700;2024-01-06T22:43:18;100607.28149414062;;;4.3;84.87
44531;BME280;30240;47.418;0.700;2024-01-06T22:45:44;100606.79931640625;;;4.28;84.86
44531;BME280;30240;47.418;0.700;2024-01-06T22:48:09;100607.97119140625;;;4.33;84.81
44531;BME280;30240;47.418;0.700;2024-01-06T22:50:34;100614.6484375;;;4.33;84.81
44531;BME280;30240;47.418;0.700;2024-01-06T22:52:58;100609.375;;;4.3;84.84
44531;BME280;30240;47.418;0.700;2024-01-06T22:55:24;100607.97119140625;;;4.24;84.94
44531;BME280;30240;47.418;0.700;2024-01-06T22:57:48;100607.97119140625;;;4.24;84.94
44531;BME280;30240;47.418;0.700;2024-01-06T23:00:14;100602.71606445312;;;4.21;85.16
44531;BME280;30240;47.418;0.700;2024-01-06T23:02:38;100605.46875;;;4.17;85.29
44531;BME280;30240;47.418;0.700;2024-01-06T23:05:04;100606.8115234375;;;4.16;85.43
44531;BME280;30240;47.418;0.700;2024-01-06T23:07:28;100605.31005859375;;;4.17;85.33
44531;BME280;30240;47.418;0.700;2024-01-06T23:09:53;100605.31005859375;;;4.17;85.33
44531;BME280;30240;47.418;0.700;2024-01-06T23:12:18;100615.31372070312;;;4.13;85.46
44531;BME280;30240;47.418;0.700;2024-01-06T23:14:43;100616.3330078125;;;4.13;85.19
44531;BME280;30240;47.418;0.700;2024-01-06T23:17:08;100616.8212890625;;;4.2;85.14
44531;BME280;30240;47.418;0.700;2024-01-06T23:19:33;100616.35131835938;;;4.24;85.04
44531;BME280;30240;47.418;0.700;2024-01-06T23:21:58;100616.35131835938;;;4.24;85.04
44531;BME280;30240;47.418;0.700;2024-01-06T23:24:23;100616.26586914062;;;4.25;84.88
44531;BME280;30240;47.418;0.700;2024-01-06T23:26:48;100616.24755859375;;;4.3;84.59
44531;BME280;30240;47.418;0.700;2024-01-06T23:29:13;100620.80688476562;;;4.37;84.39
44531;BME280;30240;47.418;0.700;2024-01-06T23:31:38;100621.2890625;;;4.35;84.42